createdAt,value
2019-03-27T00:02:18.689Z,13.00
2019-03-27T00:04:47.081Z,8.90
2019-03-27T00:07:15.474Z,10.40
2019-03-27T00:09:43.871Z,9.43
2019-03-27T00:12:12.334Z,8.33
2019-03-27T00:14:40.729Z,12.23
2019-03-27T00:17:09.114Z,9.80
2019-03-27T00:19:37.558Z,16.67
2019-03-27T00:22:06.024Z,9.13
2019-03-27T00:24:34.408Z,8.20
2019-03-27T00:27:02.808Z,11.03
2019-03-27T00:29:31.199Z,10.93
2019-03-27T00:31:59.612Z,10.90
2019-03-27T00:34:28.089Z,10.13
2019-03-27T00:36:56.518Z,9.07
2019-03-27T00:39:24.926Z,7.93
2019-03-27T00:41:53.352Z,8.73
2019-03-27T00:44:21.745Z,14.40
2019-03-27T00:46:50.182Z,8.53
2019-03-27T00:49:18.568Z,7.97
2019-03-27T00:51:46.986Z,7.87
2019-03-27T00:54:15.377Z,8.27
2019-03-27T00:56:43.797Z,8.43
2019-03-27T00:59:12.195Z,7.27
2019-03-27T01:01:40.692Z,8.30
2019-03-27T01:04:09.086Z,7.93
2019-03-27T01:06:37.492Z,9.87
2019-03-27T01:09:06.118Z,7.90
2019-03-27T01:11:34.505Z,8.10
2019-03-27T01:14:02.893Z,8.23
2019-03-27T01:16:31.285Z,7.23
2019-03-27T01:18:59.682Z,6.43
2019-03-27T01:21:28.202Z,7.27
2019-03-27T01:23:56.593Z,8.87
2019-03-27T01:26:24.975Z,9.37
2019-03-27T01:28:53.365Z,7.63
2019-03-27T01:31:21.748Z,6.83
2019-03-27T01:33:50.130Z,8.73
2019-03-27T01:36:18.522Z,6.73
2019-03-27T01:38:46.934Z,8.00
2019-03-27T01:41:15.324Z,7.37
2019-03-27T01:43:43.707Z,6.67
2019-03-27T01:46:12.092Z,8.07
2019-03-27T01:48:40.482Z,6.70
2019-03-27T01:51:08.864Z,7.10
2019-03-27T01:53:37.433Z,6.93
2019-03-27T01:56:05.822Z,7.40
2019-03-27T01:58:34.245Z,6.87
2019-03-27T02:01:02.672Z,6.10
2019-03-27T02:03:31.181Z,8.87
2019-03-27T02:05:59.565Z,7.87
2019-03-27T02:08:28.046Z,7.83
2019-03-27T02:10:56.504Z,7.57
2019-03-27T02:13:24.929Z,6.07
2019-03-27T02:16:05.903Z,6.37
2019-03-27T02:18:23.473Z,6.77
2019-03-27T02:20:51.860Z,7.80
2019-03-27T02:23:20.287Z,6.10
2019-03-27T02:25:48.865Z,7.70
2019-03-27T02:28:17.292Z,8.17
2019-03-27T02:30:45.676Z,6.83
2019-03-27T02:33:14.105Z,6.97
2019-03-27T02:35:42.494Z,6.63
2019-03-27T02:38:10.949Z,9.60
2019-03-27T02:40:39.356Z,6.40
2019-03-27T02:43:07.789Z,7.40
2019-03-27T02:45:36.172Z,6.57
2019-03-27T02:48:04.614Z,8.03
2019-03-27T02:50:32.999Z,6.03
2019-03-27T02:53:01.437Z,6.77
2019-03-27T02:55:29.787Z,7.37
2019-03-27T02:57:58.168Z,6.70
2019-03-27T03:00:26.556Z,6.87
2019-03-27T03:02:54.942Z,6.03
2019-03-27T03:05:23.335Z,6.87
2019-03-27T03:07:51.730Z,7.77
2019-03-27T03:10:20.142Z,6.50
2019-03-27T03:12:48.538Z,7.60
2019-03-27T03:15:20.186Z,6.30
2019-03-27T03:17:49.014Z,7.53
2019-03-27T03:20:17.411Z,7.83
2019-03-27T03:22:45.840Z,7.37
2019-03-27T03:25:14.232Z,6.40
2019-03-27T03:27:42.668Z,8.27
2019-03-27T03:30:11.170Z,6.30
2019-03-27T03:32:39.892Z,6.57
2019-03-27T03:35:08.766Z,7.83
2019-03-27T03:37:37.188Z,7.53
2019-03-27T03:40:06.358Z,6.20
2019-03-27T03:42:34.759Z,8.13
2019-03-27T03:45:03.420Z,6.70
2019-03-27T03:47:31.811Z,6.57
2019-03-27T03:50:00.520Z,6.70
2019-03-27T03:52:29.001Z,5.67
2019-03-27T03:54:57.463Z,6.70
2019-03-27T03:57:26.929Z,7.00
2019-03-27T03:59:55.314Z,7.17
2019-03-27T04:02:23.711Z,18.37
2019-03-27T04:04:52.181Z,6.80
2019-03-27T04:07:20.571Z,7.63
2019-03-27T04:09:48.981Z,7.13
2019-03-27T04:12:17.379Z,6.70
2019-03-27T04:14:45.754Z,7.07
2019-03-27T04:17:17.388Z,7.40
2019-03-27T04:19:44.299Z,6.80
2019-03-27T04:22:12.684Z,7.53
2019-03-27T04:24:41.095Z,6.43
2019-03-27T04:27:09.502Z,9.30
2019-03-27T04:29:37.915Z,8.77
2019-03-27T04:32:06.331Z,8.73
2019-03-27T04:34:34.742Z,9.53
2019-03-27T04:37:03.131Z,9.13
2019-03-27T04:39:31.511Z,9.00
2019-03-27T04:41:59.904Z,9.87
2019-03-27T04:44:28.314Z,10.03
2019-03-27T04:46:56.883Z,8.07
2019-03-27T04:49:25.318Z,10.20
2019-03-27T04:51:53.710Z,10.03
2019-03-27T04:54:22.208Z,11.33
2019-03-27T04:56:50.603Z,10.63
2019-03-27T04:59:19.118Z,9.27
2019-03-27T05:01:47.516Z,7.20
2019-03-27T05:04:16.002Z,9.40
2019-03-27T05:06:44.397Z,9.13
2019-03-27T05:09:12.814Z,7.87
2019-03-27T05:11:41.275Z,6.83
2019-03-27T05:14:09.711Z,7.23
2019-03-27T05:16:38.198Z,7.23
2019-03-27T05:19:06.717Z,7.77
2019-03-27T05:21:35.130Z,9.40
2019-03-27T05:24:03.561Z,7.10
2019-03-27T05:26:31.945Z,6.97
2019-03-27T05:29:00.393Z,7.17
2019-03-27T05:31:28.790Z,7.33
2019-03-27T05:33:57.225Z,7.80
2019-03-27T05:36:25.622Z,6.10
2019-03-27T05:38:54.032Z,7.23
2019-03-27T05:41:22.425Z,5.20
2019-03-27T05:43:50.861Z,5.10
2019-03-27T05:46:19.241Z,5.70
2019-03-27T05:48:47.670Z,5.67
2019-03-27T05:51:16.101Z,6.90
2019-03-27T05:53:44.522Z,5.83
2019-03-27T05:56:12.990Z,5.40
2019-03-27T05:58:41.418Z,4.73
2019-03-27T06:01:09.809Z,6.33
2019-03-27T06:03:38.347Z,4.40
2019-03-27T06:06:06.744Z,6.47
2019-03-27T06:08:35.143Z,4.47
2019-03-27T06:11:03.537Z,3.93
2019-03-27T06:13:31.937Z,8.20
2019-03-27T06:16:00.329Z,3.93
2019-03-27T06:18:28.722Z,6.00
2019-03-27T06:20:57.134Z,8.23
2019-03-27T06:23:25.528Z,9.83
2019-03-27T06:25:53.935Z,9.83
2019-03-27T06:28:22.323Z,7.33
2019-03-27T06:30:50.717Z,7.17
2019-03-27T06:33:19.114Z,6.70
2019-03-27T06:35:47.512Z,6.73
2019-03-27T06:38:15.908Z,8.10
2019-03-27T06:40:44.303Z,6.97
2019-03-27T06:43:12.698Z,7.00
2019-03-27T06:45:41.158Z,10.00
2019-03-27T06:48:09.551Z,9.90
2019-03-27T06:50:37.942Z,6.20
2019-03-27T06:53:06.338Z,6.87
2019-03-27T06:55:34.852Z,8.00
2019-03-27T06:58:03.246Z,8.60
2019-03-27T07:00:35.664Z,6.23
2019-03-27T07:03:04.623Z,6.77
2019-03-27T07:05:33.019Z,5.07
2019-03-27T07:08:01.883Z,9.20
2019-03-27T07:10:30.280Z,5.47
2019-03-27T07:12:58.676Z,5.63
2019-03-27T07:15:27.093Z,12.33
2019-03-27T07:17:55.486Z,6.23
2019-03-27T07:20:23.884Z,5.60
2019-03-27T07:22:52.279Z,6.93
2019-03-27T07:25:20.691Z,6.40
2019-03-27T07:27:49.091Z,9.00
2019-03-27T07:30:17.517Z,6.63
2019-03-27T07:32:45.911Z,7.20
2019-03-27T07:35:14.343Z,6.10
2019-03-27T07:37:42.741Z,4.60
2019-03-27T07:40:11.166Z,6.37
2019-03-27T07:42:39.577Z,8.13
2019-03-27T07:45:08.011Z,7.27
2019-03-27T07:47:36.541Z,5.93
2019-03-27T07:50:06.896Z,6.80
2019-03-27T07:52:35.355Z,5.30
2019-03-27T07:55:04.179Z,6.40
2019-03-27T07:57:32.573Z,5.10
2019-03-27T08:00:01.003Z,7.33
2019-03-27T08:02:29.398Z,6.93
2019-03-27T08:04:57.823Z,5.97
2019-03-27T08:07:27.295Z,5.03
2019-03-27T08:09:55.797Z,4.87
2019-03-27T08:12:24.263Z,4.60
2019-03-27T08:14:52.699Z,5.33
2019-03-27T08:17:21.096Z,5.77
2019-03-27T08:19:49.486Z,5.33
2019-03-27T08:22:17.881Z,5.80
2019-03-27T08:24:46.282Z,4.37
2019-03-27T08:27:14.779Z,4.57
2019-03-27T08:29:43.322Z,4.83
2019-03-27T08:32:11.722Z,3.83
2019-03-27T08:34:40.137Z,4.47
2019-03-27T08:37:08.548Z,4.23
2019-03-27T08:39:36.941Z,4.33
2019-03-27T08:42:05.335Z,4.17
2019-03-27T08:44:33.729Z,3.83
2019-03-27T08:47:02.180Z,3.60
2019-03-27T08:49:30.565Z,3.70
2019-03-27T08:51:58.999Z,3.50
2019-03-27T08:54:27.384Z,5.13
2019-03-27T08:56:55.802Z,4.47
2019-03-27T08:59:23.330Z,3.53
2019-03-27T09:01:51.773Z,3.80
2019-03-27T09:04:20.371Z,3.70
2019-03-27T09:06:48.802Z,3.57
2019-03-27T09:09:17.194Z,3.97
2019-03-27T09:11:45.635Z,4.07
2019-03-27T09:14:14.026Z,3.77
2019-03-27T09:16:42.453Z,3.53
2019-03-27T09:19:11.036Z,3.63
2019-03-27T09:21:39.586Z,3.67
2019-03-27T09:24:08.085Z,4.40
2019-03-27T09:26:36.652Z,4.40
2019-03-27T09:29:08.246Z,3.13
2019-03-27T09:31:44.880Z,3.77
2019-03-27T09:34:05.371Z,2.87
2019-03-27T09:36:33.790Z,2.83
2019-03-27T09:39:02.309Z,3.47
2019-03-27T09:41:30.816Z,3.03
2019-03-27T09:43:59.292Z,3.57
2019-03-27T09:46:27.773Z,2.80
2019-03-27T09:48:56.257Z,2.93
2019-03-27T09:51:24.680Z,3.60
2019-03-27T09:53:53.453Z,2.50
2019-03-27T09:56:22.015Z,2.90
2019-03-27T09:58:50.488Z,2.77
2019-03-27T10:01:19.067Z,2.90
2019-03-27T10:03:47.664Z,2.77
2019-03-27T10:06:16.115Z,3.10
2019-03-27T10:08:44.611Z,3.77
2019-03-27T10:11:13.096Z,3.20
2019-03-27T10:13:41.586Z,4.30
2019-03-27T10:16:10.042Z,2.93
2019-03-27T10:18:38.454Z,3.53
2019-03-27T10:21:06.968Z,2.60
2019-03-27T10:23:35.377Z,2.90
2019-03-27T10:26:03.800Z,3.03
2019-03-27T10:28:32.358Z,2.40
2019-03-27T10:31:00.785Z,2.80
2019-03-27T10:33:29.321Z,3.03
2019-03-27T10:35:57.801Z,2.47
2019-03-27T10:38:26.309Z,3.20
2019-03-27T10:40:54.724Z,2.50
2019-03-27T10:43:23.245Z,2.50
2019-03-27T10:45:51.669Z,2.30
2019-03-27T10:48:20.207Z,2.87
2019-03-27T10:50:48.689Z,2.40
2019-03-27T10:53:17.166Z,1.70
2019-03-27T10:55:45.589Z,1.70
2019-03-27T10:58:14.027Z,2.90
2019-03-27T11:00:42.517Z,2.07
2019-03-27T11:03:10.996Z,2.10
2019-03-27T11:05:39.545Z,2.10
2019-03-27T11:08:11.259Z,2.03
2019-03-27T11:10:38.381Z,2.03
2019-03-27T11:13:06.877Z,1.73
2019-03-27T11:15:35.294Z,2.10
2019-03-27T11:18:03.821Z,2.00
2019-03-27T11:20:32.275Z,2.50
2019-03-27T11:23:00.782Z,2.57
2019-03-27T11:25:32.836Z,1.90
2019-03-27T11:27:59.486Z,2.10
2019-03-27T11:30:36.157Z,2.13
2019-03-27T11:33:05.221Z,2.10
2019-03-27T11:35:33.645Z,2.33
2019-03-27T11:38:02.213Z,1.87
2019-03-27T11:40:30.697Z,2.40
2019-03-27T11:42:59.180Z,2.43
2019-03-27T11:45:27.598Z,1.87
2019-03-27T11:47:56.142Z,2.30
2019-03-27T11:50:24.565Z,2.23
2019-03-27T11:52:53.099Z,2.30
2019-03-27T11:55:21.520Z,3.00
2019-03-27T11:57:51.516Z,1.93
2019-03-27T12:00:19.936Z,2.73
2019-03-27T12:02:48.457Z,2.70
2019-03-27T12:05:16.874Z,2.00
2019-03-27T12:07:45.352Z,3.20
2019-03-27T12:10:14.208Z,3.43
2019-03-27T12:12:42.689Z,2.93
2019-03-27T12:15:11.168Z,2.50
2019-03-27T12:17:39.651Z,3.30
2019-03-27T12:20:08.072Z,3.47
2019-03-27T12:22:36.524Z,2.67
2019-03-27T12:25:05.673Z,2.20
2019-03-27T12:27:34.126Z,2.33
2019-03-27T12:30:05.329Z,2.23
2019-03-27T12:32:33.915Z,2.60
2019-03-27T12:35:02.395Z,2.93
2019-03-27T12:37:30.878Z,2.63
2019-03-27T12:39:59.357Z,1.97
2019-03-27T12:42:27.839Z,2.77
2019-03-27T12:44:56.296Z,2.07
2019-03-27T12:47:24.716Z,2.87
2019-03-27T12:49:53.215Z,1.70
2019-03-27T12:52:21.742Z,1.77
2019-03-27T12:54:50.218Z,3.10
2019-03-27T12:57:18.676Z,1.83
2019-03-27T12:59:47.106Z,2.10
2019-03-27T13:02:15.516Z,2.10
2019-03-27T13:04:43.947Z,1.83
2019-03-27T13:07:12.363Z,2.40
2019-03-27T13:09:40.783Z,3.20
2019-03-27T13:12:09.200Z,2.00
2019-03-27T13:14:37.682Z,1.57
2019-03-27T13:17:06.162Z,2.20
2019-03-27T13:19:34.646Z,1.90
2019-03-27T13:22:03.127Z,1.83
2019-03-27T13:24:31.603Z,2.50
2019-03-27T13:27:00.019Z,2.20
2019-03-27T13:29:28.441Z,1.73
2019-03-27T13:31:56.854Z,2.13
2019-03-27T13:34:25.322Z,1.90
2019-03-27T13:36:53.747Z,1.83
2019-03-27T13:39:22.287Z,2.30
2019-03-27T13:41:50.709Z,2.63
2019-03-27T13:44:19.147Z,3.67
2019-03-27T13:46:47.665Z,2.27
2019-03-27T13:49:16.413Z,2.57
2019-03-27T13:51:44.895Z,2.40
2019-03-27T13:54:13.336Z,2.50
2019-03-27T13:56:41.860Z,2.20
2019-03-27T13:59:10.643Z,2.40
2019-03-27T14:01:39.070Z,2.30
2019-03-27T14:04:07.607Z,2.13
2019-03-27T14:06:36.025Z,2.47
2019-03-27T14:09:07.094Z,11.00
2019-03-27T14:11:35.613Z,7.37
2019-03-27T14:14:11.219Z,5.67
2019-03-27T14:16:34.295Z,15.00
2019-03-27T14:19:02.798Z,9.30
2019-03-27T14:21:31.276Z,16.33
2019-03-27T14:23:59.754Z,9.47
2019-03-27T14:26:28.473Z,9.67
2019-03-27T14:28:57.087Z,17.13
2019-03-27T14:31:25.609Z,15.97
2019-03-27T14:33:54.193Z,17.07
2019-03-27T14:36:22.617Z,14.73
2019-03-27T14:38:51.084Z,20.63
2019-03-27T14:41:19.515Z,20.03
2019-03-27T14:43:47.988Z,19.23
2019-03-27T14:46:16.415Z,21.10
2019-03-27T14:48:44.976Z,21.33
2019-03-27T14:51:13.403Z,22.77
2019-03-27T14:53:41.934Z,22.10
2019-03-27T14:56:10.370Z,24.83
2019-03-27T14:58:38.889Z,23.20
2019-03-27T15:01:07.496Z,23.60
2019-03-27T15:03:36.081Z,24.83
2019-03-27T15:06:04.701Z,24.50
2019-03-27T15:08:33.347Z,26.00
2019-03-27T15:11:01.927Z,22.87
2019-03-27T15:13:30.511Z,24.40
2019-03-27T15:15:59.093Z,24.30
2019-03-27T15:18:27.682Z,24.33
2019-03-27T15:20:56.269Z,24.30
2019-03-27T15:23:24.844Z,24.73
2019-03-27T15:25:53.332Z,26.73
2019-03-27T15:28:21.910Z,25.63
2019-03-27T15:30:50.601Z,24.80
2019-03-27T15:33:19.183Z,26.47
2019-03-27T15:35:47.766Z,24.83
2019-03-27T15:38:16.346Z,23.60
2019-03-27T15:40:45.958Z,24.63
2019-03-27T15:43:14.645Z,22.73
2019-03-27T15:45:43.223Z,24.63
2019-03-27T15:48:11.749Z,24.83
2019-03-27T15:50:53.793Z,24.67
2019-03-27T15:53:11.025Z,26.03
2019-03-27T15:55:39.606Z,20.40
2019-03-27T15:58:08.206Z,19.27
2019-03-27T16:00:36.773Z,18.23
2019-03-27T16:03:05.353Z,20.17
2019-03-27T16:05:33.963Z,17.67
2019-03-27T16:08:02.518Z,17.57
2019-03-27T16:10:31.104Z,16.50
2019-03-27T16:12:59.691Z,18.93
2019-03-27T16:15:28.266Z,17.17
2019-03-27T16:17:56.853Z,18.40
2019-03-27T16:20:25.536Z,15.17
2019-03-27T16:22:54.131Z,17.00
2019-03-27T16:25:22.840Z,15.43
2019-03-27T16:27:51.394Z,15.53
2019-03-27T16:30:19.975Z,18.77
2019-03-27T16:32:48.769Z,17.27
2019-03-27T16:35:19.302Z,16.40
2019-03-27T16:37:47.800Z,15.57
2019-03-27T16:40:18.098Z,16.67
2019-03-27T16:42:46.686Z,17.47
2019-03-27T16:45:15.263Z,17.50
2019-03-27T16:47:43.765Z,17.83
2019-03-27T16:50:12.254Z,16.73
2019-03-27T16:52:40.810Z,17.73
2019-03-27T16:55:09.397Z,19.57
2019-03-27T16:57:37.979Z,16.33
2019-03-27T17:00:08.205Z,18.77
2019-03-27T17:02:37.198Z,17.20
2019-03-27T17:05:07.415Z,16.23
2019-03-27T17:07:40.624Z,16.93
2019-03-27T17:10:09.093Z,16.67
2019-03-27T17:12:37.672Z,17.53
2019-03-27T17:15:07.547Z,15.47
2019-03-27T17:17:36.170Z,16.37
2019-03-27T17:20:08.027Z,17.63
2019-03-27T17:22:36.713Z,14.90
2019-03-27T17:25:07.066Z,16.40
2019-03-27T17:27:36.030Z,14.90
2019-03-27T17:30:06.830Z,15.77
2019-03-27T17:32:35.349Z,14.47
2019-03-27T17:35:05.434Z,16.47
2019-03-27T17:37:33.868Z,13.90
2019-03-27T17:40:02.428Z,15.07
2019-03-27T17:42:31.014Z,15.03
2019-03-27T17:45:00.017Z,15.43
2019-03-27T17:47:28.686Z,12.97
2019-03-27T17:49:57.277Z,16.00
2019-03-27T17:52:26.266Z,13.57
2019-03-27T17:54:55.973Z,14.60
2019-03-27T17:57:25.380Z,15.07
2019-03-27T17:59:53.962Z,13.10
2019-03-27T18:02:22.650Z,13.93
2019-03-27T18:04:51.235Z,14.13
2019-03-27T18:07:19.816Z,13.77
2019-03-27T18:09:48.808Z,13.07
2019-03-27T18:12:17.393Z,13.53
2019-03-27T18:14:46.286Z,13.93
2019-03-27T18:17:14.854Z,12.90
2019-03-27T18:19:43.440Z,13.60
2019-03-27T18:22:13.353Z,12.77
2019-03-27T18:24:43.588Z,13.23
2019-03-27T18:27:12.675Z,13.23
2019-03-27T18:29:41.256Z,14.13
2019-03-27T18:32:09.840Z,12.53
2019-03-27T18:34:38.424Z,13.47
2019-03-27T18:37:06.900Z,12.27
2019-03-27T18:39:35.488Z,14.47
2019-03-27T18:42:04.168Z,12.57
2019-03-27T18:44:32.756Z,13.57
2019-03-27T18:47:01.340Z,13.07
2019-03-27T18:49:29.832Z,11.90
2019-03-27T18:51:58.456Z,12.47
2019-03-27T18:54:27.396Z,12.73
2019-03-27T18:56:55.987Z,12.03
2019-03-27T18:59:24.667Z,12.77
2019-03-27T19:01:53.247Z,14.37
2019-03-27T19:04:21.649Z,12.83
2019-03-27T19:06:50.058Z,12.53
2019-03-27T19:09:18.540Z,13.57
2019-03-27T19:11:46.945Z,12.70
2019-03-27T19:14:15.361Z,13.10
2019-03-27T19:16:43.761Z,14.17
2019-03-27T19:19:12.165Z,12.23
2019-03-27T19:21:40.636Z,14.07
2019-03-27T19:24:14.969Z,13.20
2019-03-27T19:26:39.174Z,15.97
2019-03-27T19:29:07.571Z,13.57
2019-03-27T19:31:35.994Z,12.70
2019-03-27T19:34:04.468Z,14.33
2019-03-27T19:36:33.041Z,14.87
2019-03-27T19:39:01.447Z,15.20
2019-03-27T19:41:30.146Z,14.60
2019-03-27T19:43:58.547Z,15.93
2019-03-27T19:46:28.574Z,14.23
2019-03-27T19:48:59.721Z,15.37
2019-03-27T19:51:28.145Z,14.03
2019-03-27T19:53:56.613Z,14.83
2019-03-27T19:56:25.011Z,14.20
2019-03-27T19:58:53.408Z,13.77
2019-03-27T20:01:21.836Z,15.67
2019-03-27T20:03:50.230Z,16.10
2019-03-27T20:06:18.675Z,16.33
2019-03-27T20:08:47.070Z,14.37
2019-03-27T20:11:15.537Z,16.73
2019-03-27T20:13:44.085Z,14.90
2019-03-27T20:16:12.534Z,14.97
2019-03-27T20:18:40.934Z,15.53
2019-03-27T20:21:09.374Z,28.17
2019-03-27T20:23:37.774Z,29.23
2019-03-27T20:26:06.197Z,26.67
2019-03-27T20:28:34.597Z,23.23
2019-03-27T20:31:03.028Z,21.50
2019-03-27T20:33:31.423Z,20.63
2019-03-27T20:35:59.856Z,23.43
2019-03-27T20:38:28.257Z,19.33
2019-03-27T20:40:56.702Z,17.47
2019-03-27T20:43:25.094Z,19.27
2019-03-27T20:45:53.501Z,19.77
2019-03-27T20:48:21.909Z,18.27
2019-03-27T20:50:50.308Z,25.97
2019-03-27T20:53:18.714Z,16.63
2019-03-27T20:55:47.122Z,15.30
2019-03-27T20:58:15.530Z,16.93
2019-03-27T21:00:43.937Z,16.03
2019-03-27T21:03:12.341Z,18.67
2019-03-27T21:05:40.748Z,17.10
2019-03-27T21:08:09.154Z,15.97
2019-03-27T21:10:37.549Z,14.97
2019-03-27T21:13:05.965Z,15.80
2019-03-27T21:15:34.440Z,15.27
2019-03-27T21:18:02.832Z,13.23
2019-03-27T21:20:31.269Z,15.43
2019-03-27T21:22:59.671Z,15.03
2019-03-27T21:25:28.066Z,14.53
2019-03-27T21:27:57.009Z,15.23
2019-03-27T21:30:25.411Z,13.80
2019-03-27T21:32:53.845Z,14.47
2019-03-27T21:35:22.240Z,12.47
2019-03-27T21:37:50.667Z,15.17
2019-03-27T21:40:19.072Z,11.93
2019-03-27T21:42:47.515Z,13.07
2019-03-27T21:45:15.981Z,11.97
2019-03-27T21:47:44.412Z,14.53
2019-03-27T21:50:12.807Z,10.60
2019-03-27T21:52:41.246Z,13.40
2019-03-27T21:55:22.035Z,11.10
2019-03-27T21:57:39.818Z,11.90
2019-03-27T22:00:08.283Z,12.03
2019-03-27T22:02:36.713Z,13.60
2019-03-27T22:05:06.476Z,13.37
2019-03-27T22:07:34.908Z,11.00
2019-03-27T22:10:03.970Z,10.53
2019-03-27T22:12:32.372Z,15.03
2019-03-27T22:15:00.768Z,12.23
2019-03-27T22:17:29.170Z,13.43
2019-03-27T22:19:57.549Z,13.13
2019-03-27T22:22:25.932Z,12.67
2019-03-27T22:24:54.309Z,11.93
2019-03-27T22:27:22.681Z,9.30
2019-03-27T22:29:51.052Z,11.03
2019-03-27T22:32:19.441Z,12.67
2019-03-27T22:34:47.816Z,9.57
2019-03-27T22:37:16.220Z,9.27
2019-03-27T22:39:44.599Z,9.33
2019-03-27T22:42:12.998Z,9.33
2019-03-27T22:44:41.372Z,10.67
2019-03-27T22:47:09.735Z,9.33
2019-03-27T22:49:38.132Z,10.20
2019-03-27T22:52:06.615Z,10.10
2019-03-27T22:54:34.992Z,10.97
2019-03-27T22:57:03.372Z,11.63
2019-03-27T22:59:31.751Z,12.33
2019-03-27T23:02:00.139Z,13.50
2019-03-27T23:04:28.537Z,13.80
2019-03-27T23:06:56.914Z,14.40
2019-03-27T23:09:25.291Z,13.40
2019-03-27T23:11:53.665Z,15.60
2019-03-27T23:14:22.131Z,14.27
2019-03-27T23:16:50.652Z,14.57
2019-03-27T23:19:19.041Z,15.50
2019-03-27T23:21:47.448Z,14.10
2019-03-27T23:24:15.829Z,14.60
2019-03-27T23:26:44.197Z,16.93
2019-03-27T23:29:12.579Z,17.23
2019-03-27T23:31:40.973Z,18.77
2019-03-27T23:34:09.357Z,18.70
2019-03-27T23:36:37.737Z,18.10
2019-03-27T23:39:07.652Z,21.17
2019-03-27T23:41:36.027Z,18.30
2019-03-27T23:44:04.407Z,15.97
2019-03-27T23:46:32.789Z,21.40
2019-03-27T23:49:01.253Z,20.40
2019-03-27T23:51:29.694Z,16.60
2019-03-27T23:53:58.091Z,16.33
2019-03-27T23:56:26.525Z,25.40
2019-03-27T23:58:54.930Z,21.37
